sensor_id;sensor_type;location;lat;lon;timestamp;noise_LAeq;noise_LA_min;noise_LA_max;noise_LA01;noise_LA95
69616;Laerm;56822;52.516;4.708;2023-12-04T00:00:08;43.98;42.06;47.62;;
69616;Laerm;56822;52.516;4.708;2023-12-04T00:00:18;44.06;42.20;51.61;;
69616;Laerm;56822;52.516;4.708;2023-12-04T00:00:29;43.88;42.36;46.17;;
69616;Laerm;56822;52.516;4.708;2023-12-04T00:00:39;44.30;42.31;53.93;;
69616;Laerm;56822;52.516;4.708;2023-12-04T00:00:49;44.38;41.83;49.17;;
69616;Laerm;56822;52.516;4.708;2023-12-04T00:00:59;43.65;42.13;46.00;;
69616;Laerm;56822;52.516;4.708;2023-12-04T00:01:10;44.35;42.32;47.87;;
69616;Laerm;56822;52.516;4.708;2023-12-04T00:01:20;43.78;42.10;47.42;;
69616;Laerm;56822;52.516;4.708;2023-12-04T00:01:30;44.27;42.22;50.39;;
69616;Laerm;56822;52.516;4.708;2023-12-04T00:01:44;43.72;42.07;45.64;;
69616;Laerm;56822;52.516;4.708;2023-12-04T00:01:55;43.95;42.07;47.93;;
69616;Laerm;56822;52.516;4.708;2023-12-04T00:02:05;43.86;42.20;47.03;;
69616;Laerm;56822;52.516;4.708;2023-12-04T00:02:15;44.18;42.32;47.24;;
69616;Laerm;56822;52.516;4.708;2023-12-04T00:02:26;44.46;42.46;47.83;;
69616;Laerm;56822;52.516;4.708;2023-12-04T00:02:36;43.70;42.30;45.91;;
69616;Laerm;56822;52.516;4.708;2023-12-04T00:02:48;44.18;42.28;51.27;;
69616;Laerm;56822;52.516;4.708;2023-12-04T00:02:58;44.25;42.26;49.71;;
69616;Laerm;56822;52.516;4.708;2023-12-04T00:03:08;44.18;42.25;47.98;;
69616;Laerm;56822;52.516;4.708;2023-12-04T00:03:19;43.70;41.71;46.50;;
69616;Laerm;56822;52.516;4.708;2023-12-04T00:03:29;43.94;42.11;48.60;;
69616;Laerm;56822;52.516;4.708;2023-12-04T00:03:39;43.42;41.72;46.42;;
69616;Laerm;56822;52.516;4.708;2023-12-04T00:03:49;43.15;41.95;45.15;;
69616;Laerm;56822;52.516;4.708;2023-12-04T00:04:00;43.34;41.78;49.06;;
69616;Laerm;56822;52.516;4.708;2023-12-04T00:04:11;43.38;41.85;45.47;;
69616;Laerm;56822;52.516;4.708;2023-12-04T00:04:21;43.35;42.01;46.14;;
69616;Laerm;56822;52.516;4.708;2023-12-04T00:04:32;43.57;41.82;48.08;;
69616;Laerm;56822;52.516;4.708;2023-12-04T00:04:42;43.72;42.10;46.20;;
69616;Laerm;56822;52.516;4.708;2023-12-04T00:04:52;43.75;42.07;46.77;;
69616;Laerm;56822;52.516;4.708;2023-12-04T00:05:03;43.88;42.28;46.44;;
69616;Laerm;56822;52.516;4.708;2023-12-04T00:05:13;44.15;41.86;49.93;;
69616;Laerm;56822;52.516;4.708;2023-12-04T00:05:23;44.23;42.19;55.75;;
69616;Laerm;56822;52.516;4.708;2023-12-04T00:05:34;44.24;41.81;52.63;;
69616;Laerm;56822;52.516;4.708;2023-12-04T00:05:44;44.14;42.15;51.05;;
69616;Laerm;56822;52.516;4.708;2023-12-04T00:05:54;43.60;41.81;55.42;;
69616;Laerm;56822;52.516;4.708;2023-12-04T00:06:05;43.76;42.05;50.02;;
69616;Laerm;56822;52.516;4.708;2023-12-04T00:06:15;43.67;41.95;46.54;;
69616;Laerm;56822;52.516;4.708;2023-12-04T00:06:25;43.78;42.16;46.47;;
69616;Laerm;56822;52.516;4.708;2023-12-04T00:06:36;43.28;42.05;46.38;;
69616;Laerm;56822;52.516;4.708;2023-12-04T00:06:46;43.80;42.36;50.85;;
69616;Laerm;56822;52.516;4.708;2023-12-04T00:06:56;43.91;42.05;47.69;;
69616;Laerm;56822;52.516;4.708;2023-12-04T00:07:06;43.68;42.09;45.98;;
69616;Laerm;56822;52.516;4.708;2023-12-04T00:07:17;43.58;41.75;46.81;;
69616;Laerm;56822;52.516;4.708;2023-12-04T00:07:27;43.98;42.33;49.62;;
69616;Laerm;56822;52.516;4.708;2023-12-04T00:07:37;43.79;42.27;49.78;;
69616;Laerm;56822;52.516;4.708;2023-12-04T00:07:48;43.47;42.17;46.37;;
69616;Laerm;56822;52.516;4.708;2023-12-04T00:07:58;43.73;41.99;46.71;;
69616;Laerm;56822;52.516;4.708;2023-12-04T00:08:09;43.58;42.07;46.11;;
69616;Laerm;56822;52.516;4.708;2023-12-04T00:08:19;43.62;42.03;50.42;;
69616;Laerm;56822;52.516;4.708;2023-12-04T00:08:29;43.75;41.73;55.89;;
69616;Laerm;56822;52.516;4.708;2023-12-04T00:08:40;43.01;41.60;45.27;;
69616;Laerm;56822;52.516;4.708;2023-12-04T00:08:50;45.13;41.54;64.71;;
69616;Laerm;56822;52.516;4.708;2023-12-04T00:09:00;44.49;42.10;50.07;;
69616;Laerm;56822;52.516;4.708;2023-12-04T00:09:11;43.85;42.02;47.49;;
69616;Laerm;56822;52.516;4.708;2023-12-04T00:09:21;43.74;42.02;48.35;;
69616;Laerm;56822;52.516;4.708;2023-12-04T00:09:33;43.75;42.06;51.02;;
69616;Laerm;56822;52.516;4.708;2023-12-04T00:09:44;43.75;42.16;46.03;;
69616;Laerm;56822;52.516;4.708;2023-12-04T00:09:54;43.22;41.85;49.91;;
69616;Laerm;56822;52.516;4.708;2023-12-04T00:10:04;43.23;41.82;48.02;;
69616;Laerm;56822;52.516;4.708;2023-12-04T00:10:15;43.10;41.93;45.34;;
69616;Laerm;56822;52.516;4.708;2023-12-04T00:10:26;43.22;41.73;45.78;;
69616;Laerm;56822;52.516;4.708;2023-12-04T00:10:36;43.45;41.84;49.99;;
69616;Laerm;56822;52.516;4.708;2023-12-04T00:10:46;43.84;42.53;48.13;;
69616;Laerm;56822;52.516;4.708;2023-12-04T00:10:56;43.40;41.93;45.31;;
69616;Laerm;56822;52.516;4.708;2023-12-04T00:11:07;43.22;42.00;45.06;;
69616;Laerm;56822;52.516;4.708;2023-12-04T00:11:17;43.17;41.95;50.42;;
69616;Laerm;56822;52.516;4.708;2023-12-04T00:11:27;43.08;41.63;45.85;;
69616;Laerm;56822;52.516;4.708;2023-12-04T00:11:37;43.40;41.94;52.05;;
69616;Laerm;56822;52.516;4.708;2023-12-04T00:11:48;49.41;42.08;72.81;;
69616;Laerm;56822;52.516;4.708;2023-12-04T00:11:58;43.29;41.96;44.57;;
69616;Laerm;56822;52.516;4.708;2023-12-04T00:12:09;42.91;41.67;44.37;;
69616;Laerm;56822;52.516;4.708;2023-12-04T00:12:19;43.10;41.69;45.76;;
69616;Laerm;56822;52.516;4.708;2023-12-04T00:12:30;43.67;41.71;60.92;;
69616;Laerm;56822;52.516;4.708;2023-12-04T00:12:40;43.67;41.92;48.99;;
69616;Laerm;56822;52.516;4.708;2023-12-04T00:12:51;43.42;41.92;46.31;;
69616;Laerm;56822;52.516;4.708;2023-12-04T00:13:01;43.39;41.38;50.28;;
69616;Laerm;56822;52.516;4.708;2023-12-04T00:13:11;43.68;41.96;51.69;;
69616;Laerm;56822;52.516;4.708;2023-12-04T00:13:22;43.55;42.10;54.00;;
69616;Laerm;56822;52.516;4.708;2023-12-04T00:13:33;43.07;41.77;49.49;;
69616;Laerm;56822;52.516;4.708;2023-12-04T00:13:43;43.42;41.55;49.57;;
69616;Laerm;56822;52.516;4.708;2023-12-04T00:13:53;43.33;41.90;46.87;;
69616;Laerm;56822;52.516;4.708;2023-12-04T00:14:03;43.26;41.73;45.25;;
69616;Laerm;56822;52.516;4.708;2023-12-04T00:14:14;43.47;42.08;45.29;;
69616;Laerm;56822;52.516;4.708;2023-12-04T00:14:24;43.93;42.53;46.61;;
69616;Laerm;56822;52.516;4.708;2023-12-04T00:14:34;43.82;42.51;46.76;;
69616;Laerm;56822;52.516;4.708;2023-12-04T00:14:45;43.56;42.32;45.14;;
69616;Laerm;56822;52.516;4.708;2023-12-04T00:14:55;43.74;42.24;49.46;;
69616;Laerm;56822;52.516;4.708;2023-12-04T00:15:05;43.66;42.09;48.77;;
69616;Laerm;56822;52.516;4.708;2023-12-04T00:15:16;43.04;41.85;46.34;;
69616;Laerm;56822;52.516;4.708;2023-12-04T00:15:27;43.05;41.57;47.46;;
69616;Laerm;56822;52.516;4.708;2023-12-04T00:15:37;43.27;41.91;44.48;;
69616;Laerm;56822;52.516;4.708;2023-12-04T00:15:48;43.30;41.91;45.68;;
69616;Laerm;56822;52.516;4.708;2023-12-04T00:15:58;43.28;41.74;47.49;;
69616;Laerm;56822;52.516;4.708;2023-12-04T00:16:08;43.56;41.88;46.30;;
69616;Laerm;56822;52.516;4.708;2023-12-04T00:16:19;43.24;42.07;45.56;;
69616;Laerm;56822;52.516;4.708;2023-12-04T00:16:29;43.48;42.09;46.43;;
69616;Laerm;56822;52.516;4.708;2023-12-04T00:16:39;43.93;41.95;53.07;;
69616;Laerm;56822;52.516;4.708;2023-12-04T00:16:49;43.72;42.03;52.24;;
69616;Laerm;56822;52.516;4.708;2023-12-04T00:17:00;44.62;42.24;59.46;;
69616;Laerm;56822;52.516;4.708;2023-12-04T00:17:10;44.26;42.25;49.79;;
69616;Laerm;56822;52.516;4.708;2023-12-04T00:17:20;44.67;42.82;47.72;;
69616;Laerm;56822;52.516;4.708;2023-12-04T00:17:30;44.28;42.22;51.36;;
69616;Laerm;56822;52.516;4.708;2023-12-04T00:17:41;45.48;42.55;59.39;;
69616;Laerm;56822;52.516;4.708;2023-12-04T00:17:51;44.77;42.85;53.54;;
69616;Laerm;56822;52.516;4.708;2023-12-04T00:18:01;44.49;41.78;56.60;;
69616;Laerm;56822;52.516;4.708;2023-12-04T00:18:12;46.74;42.56;65.09;;
69616;Laerm;56822;52.516;4.708;2023-12-04T00:18:22;46.86;42.14;66.75;;
69616;Laerm;56822;52.516;4.708;2023-12-04T00:18:32;45.41;43.34;52.30;;
69616;Laerm;56822;52.516;4.708;2023-12-04T00:18:43;45.01;42.87;49.47;;
69616;Laerm;56822;52.516;4.708;2023-12-04T00:18:53;44.28;42.65;48.80;;
69616;Laerm;56822;52.516;4.708;2023-12-04T00:19:03;44.27;42.18;47.01;;
69616;Laerm;56822;52.516;4.708;2023-12-04T00:19:14;44.68;42.81;48.51;;
69616;Laerm;56822;52.516;4.708;2023-12-04T00:19:24;44.05;42.31;48.88;;
69616;Laerm;56822;52.516;4.708;2023-12-04T00:19:35;44.76;42.48;50.80;;
69616;Laerm;56822;52.516;4.708;2023-12-04T00:19:45;44.08;42.02;47.57;;
69616;Laerm;56822;52.516;4.708;2023-12-04T00:19:56;44.11;42.05;52.00;;
69616;Laerm;56822;52.516;4.708;2023-12-04T00:20:07;43.69;42.06;49.75;;
69616;Laerm;56822;52.516;4.708;2023-12-04T00:20:19;44.01;42.01;46.89;;
69616;Laerm;56822;52.516;4.708;2023-12-04T00:20:29;43.61;42.26;46.60;;
69616;Laerm;56822;52.516;4.708;2023-12-04T00:20:39;44.18;42.21;46.83;;
69616;Laerm;56822;52.516;4.708;2023-12-04T00:20:50;44.31;42.43;48.44;;
69616;Laerm;56822;52.516;4.708;2023-12-04T00:21:00;44.18;42.38;48.38;;
69616;Laerm;56822;52.516;4.708;2023-12-04T00:21:10;43.86;42.08;47.38;;
69616;Laerm;56822;52.516;4.708;2023-12-04T00:21:21;44.31;41.61;50.03;;
69616;Laerm;56822;52.516;4.708;2023-12-04T00:21:31;44.80;42.09;60.70;;
69616;Laerm;56822;52.516;4.708;2023-12-04T00:21:41;44.58;42.51;49.13;;
69616;Laerm;56822;52.516;4.708;2023-12-04T00:21:51;44.03;42.34;49.34;;
69616;Laerm;56822;52.516;4.708;2023-12-04T00:22:02;43.74;42.33;47.19;;
69616;Laerm;56822;52.516;4.708;2023-12-04T00:22:12;44.13;42.27;47.57;;
69616;Laerm;56822;52.516;4.708;2023-12-04T00:22:22;44.38;42.41;49.16;;
69616;Laerm;56822;52.516;4.708;2023-12-04T00:22:33;43.70;41.82;46.08;;
69616;Laerm;56822;52.516;4.708;2023-12-04T00:22:45;43.47;42.12;45.11;;
69616;Laerm;56822;52.516;4.708;2023-12-04T00:22:55;43.45;41.95;47.19;;
69616;Laerm;56822;52.516;4.708;2023-12-04T00:23:05;43.47;42.08;46.31;;
69616;Laerm;56822;52.516;4.708;2023-12-04T00:23:16;43.62;41.87;45.54;;
69616;Laerm;56822;52.516;4.708;2023-12-04T00:23:26;44.14;42.31;51.07;;
69616;Laerm;56822;52.516;4.708;2023-12-04T00:23:36;44.11;42.30;47.57;;
69616;Laerm;56822;52.516;4.708;2023-12-04T00:23:47;44.14;42.37;47.34;;
69616;Laerm;56822;52.516;4.708;2023-12-04T00:23:57;43.92;42.05;47.42;;
69616;Laerm;56822;52.516;4.708;2023-12-04T00:24:07;43.55;42.12;47.53;;
69616;Laerm;56822;52.516;4.708;2023-12-04T00:24:17;44.41;41.46;46.72;;
69616;Laerm;56822;52.516;4.708;2023-12-04T00:24:28;43.86;42.10;46.88;;
69616;Laerm;56822;52.516;4.708;2023-12-04T00:24:38;44.17;42.27;48.30;;
69616;Laerm;56822;52.516;4.708;2023-12-04T00:24:49;44.15;42.65;47.22;;
69616;Laerm;56822;52.516;4.708;2023-12-04T00:24:59;43.65;41.47;45.99;;
69616;Laerm;56822;52.516;4.708;2023-12-04T00:25:09;43.50;41.63;46.81;;
69616;Laerm;56822;52.516;4.708;2023-12-04T00:25:19;43.56;42.12;47.97;;
69616;Laerm;56822;52.516;4.708;2023-12-04T00:25:30;43.71;42.15;46.29;;
69616;Laerm;56822;52.516;4.708;2023-12-04T00:25:40;44.24;42.57;47.38;;
69616;Laerm;56822;52.516;4.708;2023-12-04T00:25:50;44.61;42.79;46.82;;
69616;Laerm;56822;52.516;4.708;2023-12-04T00:26:01;44.46;42.49;51.15;;
69616;Laerm;56822;52.516;4.708;2023-12-04T00:26:12;43.93;42.42;48.43;;
69616;Laerm;56822;52.516;4.708;2023-12-04T00:26:23;44.16;42.36;46.75;;
69616;Laerm;56822;52.516;4.708;2023-12-04T00:26:33;43.95;42.22;46.56;;
69616;Laerm;56822;52.516;4.708;2023-12-04T00:26:43;43.92;41.91;46.32;;
69616;Laerm;56822;52.516;4.708;2023-12-04T00:26:54;43.71;42.12;45.72;;
69616;Laerm;56822;52.516;4.708;2023-12-04T00:27:04;44.06;41.93;48.11;;
69616;Laerm;56822;52.516;4.708;2023-12-04T00:27:15;43.96;42.08;46.47;;
69616;Laerm;56822;52.516;4.708;2023-12-04T00:27:25;43.82;42.19;47.45;;
69616;Laerm;56822;52.516;4.708;2023-12-04T00:27:37;44.74;42.45;48.88;;
69616;Laerm;56822;52.516;4.708;2023-12-04T00:27:47;45.20;42.88;48.50;;
69616;Laerm;56822;52.516;4.708;2023-12-04T00:27:57;44.95;42.20;50.74;;
69616;Laerm;56822;52.516;4.708;2023-12-04T00:28:08;43.97;41.94;48.21;;
69616;Laerm;56822;52.516;4.708;2023-12-04T00:28:18;44.27;41.75;48.46;;
69616;Laerm;56822;52.516;4.708;2023-12-04T00:28:28;43.70;42.16;47.05;;
69616;Laerm;56822;52.516;4.708;2023-12-04T00:28:38;43.49;42.14;45.35;;
69616;Laerm;56822;52.516;4.708;2023-12-04T00:28:49;43.61;41.97;45.84;;
69616;Laerm;56822;52.516;4.708;2023-12-04T00:28:59;43.67;42.00;46.50;;
69616;Laerm;56822;52.516;4.708;2023-12-04T00:29:09;43.65;41.93;47.20;;
69616;Laerm;56822;52.516;4.708;2023-12-04T00:29:20;43.52;42.01;46.12;;
69616;Laerm;56822;52.516;4.708;2023-12-04T00:29:30;43.52;41.79;48.33;;
69616;Laerm;56822;52.516;4.708;2023-12-04T00:29:40;43.70;42.00;45.56;;
69616;Laerm;56822;52.516;4.708;2023-12-04T00:29:50;43.53;42.27;45.13;;
69616;Laerm;56822;52.516;4.708;2023-12-04T00:30:01;43.65;42.44;47.19;;
69616;Laerm;56822;52.516;4.708;2023-12-04T00:30:14;44.00;41.65;52.58;;
69616;Laerm;56822;52.516;4.708;2023-12-04T00:30:24;43.61;41.96;45.93;;
69616;Laerm;56822;52.516;4.708;2023-12-04T00:30:34;43.84;42.44;48.15;;
69616;Laerm;56822;52.516;4.708;2023-12-04T00:30:44;43.78;42.13;45.82;;
69616;Laerm;56822;52.516;4.708;2023-12-04T00:30:55;44.00;42.26;47.14;;
69616;Laerm;56822;52.516;4.708;2023-12-04T00:31:05;43.93;41.93;52.94;;
69616;Laerm;56822;52.516;4.708;2023-12-04T00:31:15;43.64;42.23;47.77;;
69616;Laerm;56822;52.516;4.708;2023-12-04T00:31:26;43.83;42.03;47.94;;
69616;Laerm;56822;52.516;4.708;2023-12-04T00:31:36;43.94;41.90;47.96;;
69616;Laerm;56822;52.516;4.708;2023-12-04T00:31:46;44.93;42.16;55.87;;
69616;Laerm;56822;52.516;4.708;2023-12-04T00:31:57;43.35;41.49;46.98;;
69616;Laerm;56822;52.516;4.708;2023-12-04T00:32:07;43.69;41.74;46.44;;
69616;Laerm;56822;52.516;4.708;2023-12-04T00:32:17;43.35;41.75;47.20;;
69616;Laerm;56822;52.516;4.708;2023-12-04T00:32:28;43.92;42.12;47.76;;
69616;Laerm;56822;52.516;4.708;2023-12-04T00:32:38;44.29;42.08;49.33;;
69616;Laerm;56822;52.516;4.708;2023-12-04T00:32:48;44.63;42.49;50.59;;
69616;Laerm;56822;52.516;4.708;2023-12-04T00:32:58;43.89;42.41;46.20;;
69616;Laerm;56822;52.516;4.708;2023-12-04T00:33:09;43.82;42.33;47.59;;
69616;Laerm;56822;52.516;4.708;2023-12-04T00:33:19;43.96;42.16;50.27;;
69616;Laerm;56822;52.516;4.708;2023-12-04T00:33:29;44.21;42.15;46.69;;
69616;Laerm;56822;52.516;4.708;2023-12-04T00:33:40;44.03;42.01;46.40;;
69616;Laerm;56822;52.516;4.708;2023-12-04T00:33:50;43.90;42.21;48.27;;
69616;Laerm;56822;52.516;4.708;2023-12-04T00:34:01;43.92;42.02;47.35;;
69616;Laerm;56822;52.516;4.708;2023-12-04T00:34:11;43.47;41.77;46.98;;
69616;Laerm;56822;52.516;4.708;2023-12-04T00:34:22;43.26;41.57;45.95;;
69616;Laerm;56822;52.516;4.708;2023-12-04T00:34:33;43.59;41.77;47.72;;
69616;Laerm;56822;52.516;4.708;2023-12-04T00:34:43;43.62;41.60;50.32;;
69616;Laerm;56822;52.516;4.708;2023-12-04T00:34:53;44.07;41.67;48.88;;
69616;Laerm;56822;52.516;4.708;2023-12-04T00:35:03;43.69;42.03;48.04;;
69616;Laerm;56822;52.516;4.708;2023-12-04T00:35:14;43.82;42.00;47.99;;
69616;Laerm;56822;52.516;4.708;2023-12-04T00:35:24;44.16;42.07;48.95;;
69616;Laerm;56822;52.516;4.708;2023-12-04T00:35:34;43.74;42.02;48.29;;
69616;Laerm;56822;52.516;4.708;2023-12-04T00:35:45;44.18;42.20;46.52;;
69616;Laerm;56822;52.516;4.708;2023-12-04T00:35:56;43.87;42.27;46.89;;
69616;Laerm;56822;52.516;4.708;2023-12-04T00:36:06;44.08;41.88;52.87;;
69616;Laerm;56822;52.516;4.708;2023-12-04T00:36:17;43.85;41.85;48.98;;
69616;Laerm;56822;52.516;4.708;2023-12-04T00:36:29;43.75;41.75;47.29;;
69616;Laerm;56822;52.516;4.708;2023-12-04T00:36:40;44.30;42.13;48.28;;
69616;Laerm;56822;52.516;4.708;2023-12-04T00:36:50;44.03;41.94;47.79;;
69616;Laerm;56822;52.516;4.708;2023-12-04T00:37:00;44.19;42.07;46.53;;
69616;Laerm;56822;52.516;4.708;2023-12-04T00:37:10;43.92;42.25;46.95;;
69616;Laerm;56822;52.516;4.708;2023-12-04T00:37:21;42.97;41.57;45.16;;
69616;Laerm;56822;52.516;4.708;2023-12-04T00:37:31;43.11;41.47;45.63;;
69616;Laerm;56822;52.516;4.708;2023-12-04T00:37:41;43.20;41.76;45.50;;
69616;Laerm;56822;52.516;4.708;2023-12-04T00:37:52;43.33;41.55;47.79;;
69616;Laerm;56822;52.516;4.708;2023-12-04T00:38:02;43.34;41.89;47.18;;
69616;Laerm;56822;52.516;4.708;2023-12-04T00:38:12;43.27;41.59;46.30;;
69616;Laerm;56822;52.516;4.708;2023-12-04T00:38:23;43.35;41.88;45.73;;
69616;Laerm;56822;52.516;4.708;2023-12-04T00:38:33;43.05;41.95;47.29;;
69616;Laerm;56822;52.516;4.708;2023-12-04T00:38:43;43.37;42.06;46.48;;
69616;Laerm;56822;52.516;4.708;2023-12-04T00:38:53;45.39;41.92;56.07;;
69616;Laerm;56822;52.516;4.708;2023-12-04T00:39:04;43.92;42.01;47.60;;
69616;Laerm;56822;52.516;4.708;2023-12-04T00:39:14;43.56;41.93;48.90;;
69616;Laerm;56822;52.516;4.708;2023-12-04T00:39:24;43.14;41.88;44.56;;
69616;Laerm;56822;52.516;4.708;2023-12-04T00:39:35;43.54;42.06;46.51;;
69616;Laerm;56822;52.516;4.708;2023-12-04T00:39:45;43.69;42.14;46.37;;
69616;Laerm;56822;52.516;4.708;2023-12-04T00:39:55;43.54;41.49;46.49;;
69616;Laerm;56822;52.516;4.708;2023-12-04T00:40:06;43.31;41.67;45.99;;
69616;Laerm;56822;52.516;4.708;2023-12-04T00:40:18;43.68;42.22;47.40;;
69616;Laerm;56822;52.516;4.708;2023-12-04T00:40:28;43.64;42.07;48.48;;
69616;Laerm;56822;52.516;4.708;2023-12-04T00:40:38;44.03;41.77;49.01;;
69616;Laerm;56822;52.516;4.708;2023-12-04T00:40:48;44.53;42.34;50.12;;
69616;Laerm;56822;52.516;4.708;2023-12-04T00:40:59;43.96;42.01;49.99;;
69616;Laerm;56822;52.516;4.708;2023-12-04T00:41:10;43.61;41.80;46.21;;
69616;Laerm;56822;52.516;4.708;2023-12-04T00:41:20;43.83;41.65;52.98;;
69616;Laerm;56822;52.516;4.708;2023-12-04T00:41:30;43.43;41.76;46.65;;
69616;Laerm;56822;52.516;4.708;2023-12-04T00:41:41;44.25;41.70;56.29;;
69616;Laerm;56822;52.516;4.708;2023-12-04T00:41:51;44.62;41.84;54.79;;
69616;Laerm;56822;52.516;4.708;2023-12-04T00:42:01;45.65;41.93;55.57;;
69616;Laerm;56822;52.516;4.708;2023-12-04T00:42:12;43.71;42.05;47.30;;
69616;Laerm;56822;52.516;4.708;2023-12-04T00:42:22;44.23;42.19;53.77;;
69616;Laerm;56822;52.516;4.708;2023-12-04T00:42:32;43.57;41.80;51.53;;
69616;Laerm;56822;52.516;4.708;2023-12-04T00:42:43;42.95;41.67;44.47;;
69616;Laerm;56822;52.516;4.708;2023-12-04T00:42:53;43.48;41.61;51.36;;
69616;Laerm;56822;52.516;4.708;2023-12-04T00:43:03;43.32;41.47;47.94;;
69616;Laerm;56822;52.516;4.708;2023-12-04T00:43:14;43.17;41.71;51.42;;
69616;Laerm;56822;52.516;4.708;2023-12-04T00:43:24;43.24;41.41;50.25;;
69616;Laerm;56822;52.516;4.708;2023-12-04T00:43:34;43.17;41.48;46.12;;
69616;Laerm;56822;52.516;4.708;2023-12-04T00:43:44;43.37;42.27;44.51;;
69616;Laerm;56822;52.516;4.708;2023-12-04T00:43:55;43.33;41.83;45.69;;
69616;Laerm;56822;52.516;4.708;2023-12-04T00:44:05;43.53;41.82;45.37;;
69616;Laerm;56822;52.516;4.708;2023-12-04T00:44:15;43.85;41.40;50.55;;
69616;Laerm;56822;52.516;4.708;2023-12-04T00:44:25;43.37;41.36;50.74;;
69616;Laerm;56822;52.516;4.708;2023-12-04T00:44:36;43.82;41.93;48.01;;
69616;Laerm;56822;52.516;4.708;2023-12-04T00:44:46;43.64;41.90;46.67;;
69616;Laerm;56822;52.516;4.708;2023-12-04T00:44:56;43.93;42.10;47.02;;
69616;Laerm;56822;52.516;4.708;2023-12-04T00:45:07;43.35;41.35;45.73;;
69616;Laerm;56822;52.516;4.708;2023-12-04T00:45:17;43.59;41.92;46.09;;
69616;Laerm;56822;52.516;4.708;2023-12-04T00:45:28;43.43;41.80;45.89;;
69616;Laerm;56822;52.516;4.708;2023-12-04T00:45:38;43.80;42.32;46.42;;
69616;Laerm;56822;52.516;4.708;2023-12-04T00:45:48;43.65;42.09;47.24;;
69616;Laerm;56822;52.516;4.708;2023-12-04T00:45:58;43.61;41.92;46.74;;
69616;Laerm;56822;52.516;4.708;2023-12-04T00:46:09;43.42;41.69;47.26;;
69616;Laerm;56822;52.516;4.708;2023-12-04T00:46:19;43.94;41.84;58.19;;
69616;Laerm;56822;52.516;4.708;2023-12-04T00:46:29;43.55;42.10;46.10;;
69616;Laerm;56822;52.516;4.708;2023-12-04T00:46:39;43.77;41.91;46.31;;
69616;Laerm;56822;52.516;4.708;2023-12-04T00:46:50;43.56;42.00;45.43;;
69616;Laerm;56822;52.516;4.708;2023-12-04T00:47:00;43.56;41.96;47.69;;
69616;Laerm;56822;52.516;4.708;2023-12-04T00:47:10;43.77;41.92;54.01;;
69616;Laerm;56822;52.516;4.708;2023-12-04T00:47:21;43.45;41.83;52.29;;
69616;Laerm;56822;52.516;4.708;2023-12-04T00:47:31;44.18;42.06;47.36;;
69616;Laerm;56822;52.516;4.708;2023-12-04T00:47:41;44.35;42.25;47.82;;
69616;Laerm;56822;52.516;4.708;2023-12-04T00:47:51;45.54;42.35;49.12;;
69616;Laerm;56822;52.516;4.708;2023-12-04T00:48:02;44.91;42.01;52.70;;
69616;Laerm;56822;52.516;4.708;2023-12-04T00:48:12;44.44;42.38;50.00;;
69616;Laerm;56822;52.516;4.708;2023-12-04T00:48:23;47.19;42.20;56.34;;
69616;Laerm;56822;52.516;4.708;2023-12-04T00:48:33;45.16;42.49;55.40;;
69616;Laerm;56822;52.516;4.708;2023-12-04T00:48:43;46.27;42.45;60.12;;
69616;Laerm;56822;52.516;4.708;2023-12-04T00:48:56;44.37;41.67;53.37;;
69616;Laerm;56822;52.516;4.708;2023-12-04T00:49:06;45.08;41.69;55.36;;
69616;Laerm;56822;52.516;4.708;2023-12-04T00:49:16;46.64;42.40;66.82;;
69616;Laerm;56822;52.516;4.708;2023-12-04T00:49:27;45.18;42.18;56.16;;
69616;Laerm;56822;52.516;4.708;2023-12-04T00:49:37;44.67;42.33;50.47;;
69616;Laerm;56822;52.516;4.708;2023-12-04T00:49:47;45.54;42.18;52.02;;
69616;Laerm;56822;52.516;4.708;2023-12-04T00:49:58;45.15;42.56;55.06;;
69616;Laerm;56822;52.516;4.708;2023-12-04T00:50:08;44.82;42.04;50.12;;
69616;Laerm;56822;52.516;4.708;2023-12-04T00:50:18;46.13;42.64;57.30;;
69616;Laerm;56822;52.516;4.708;2023-12-04T00:50:29;45.88;42.05;60.41;;
69616;Laerm;56822;52.516;4.708;2023-12-04T00:50:39;46.50;41.82;64.04;;
69616;Laerm;56822;52.516;4.708;2023-12-04T00:50:50;46.62;41.79;63.16;;
69616;Laerm;56822;52.516;4.708;2023-12-04T00:51:01;45.65;42.37;60.17;;
69616;Laerm;56822;52.516;4.708;2023-12-04T00:51:11;48.74;42.12;68.61;;
69616;Laerm;56822;52.516;4.708;2023-12-04T00:51:21;49.59;42.76;70.29;;
69616;Laerm;56822;52.516;4.708;2023-12-04T00:51:38;49.50;42.66;61.00;;
69616;Laerm;56822;52.516;4.708;2023-12-04T00:51:49;48.39;42.82;64.04;;
69616;Laerm;56822;52.516;4.708;2023-12-04T00:51:59;52.55;42.72;75.51;;
69616;Laerm;56822;52.516;4.708;2023-12-04T00:52:09;45.41;42.32;58.23;;
69616;Laerm;56822;52.516;4.708;2023-12-04T00:52:19;47.96;42.38;58.11;;
69616;Laerm;56822;52.516;4.708;2023-12-04T00:52:30;49.12;42.14;70.25;;
69616;Laerm;56822;52.516;4.708;2023-12-04T00:52:40;53.46;42.19;76.95;;
69616;Laerm;56822;52.516;4.708;2023-12-04T00:52:50;49.82;42.09;65.53;;
69616;Laerm;56822;52.516;4.708;2023-12-04T00:53:00;48.59;42.34;59.41;;
69616;Laerm;56822;52.516;4.708;2023-12-04T00:53:11;47.18;42.32;61.06;;
69616;Laerm;56822;52.516;4.708;2023-12-04T00:53:22;48.39;42.32;69.51;;
69616;Laerm;56822;52.516;4.708;2023-12-04T00:53:32;50.49;41.89;72.65;;
69616;Laerm;56822;52.516;4.708;2023-12-04T00:53:42;49.38;42.14;68.70;;
69616;Laerm;56822;52.516;4.708;2023-12-04T00:53:53;49.06;42.42;70.35;;
69616;Laerm;56822;52.516;4.708;2023-12-04T00:54:03;60.49;42.23;83.13;;
69616;Laerm;56822;52.516;4.708;2023-12-04T00:54:13;59.02;42.75;83.49;;
69616;Laerm;56822;52.516;4.708;2023-12-04T00:54:23;47.18;42.12;59.41;;
69616;Laerm;56822;52.516;4.708;2023-12-04T00:54:34;46.03;42.14;60.58;;
69616;Laerm;56822;52.516;4.708;2023-12-04T00:54:44;49.43;42.18;70.89;;
69616;Laerm;56822;52.516;4.708;2023-12-04T00:54:54;46.53;41.79;56.09;;
69616;Laerm;56822;52.516;4.708;2023-12-04T00:55:04;48.59;42.87;66.15;;
69616;Laerm;56822;52.516;4.708;2023-12-04T00:55:15;47.89;42.71;65.99;;
69616;Laerm;56822;52.516;4.708;2023-12-04T00:55:25;49.74;42.42;71.44;;
69616;Laerm;56822;52.516;4.708;2023-12-04T00:55:35;50.27;42.63;72.90;;
69616;Laerm;56822;52.516;4.708;2023-12-04T00:55:46;45.59;42.44;55.28;;
69616;Laerm;56822;52.516;4.708;2023-12-04T00:55:56;46.51;42.57;56.46;;
69616;Laerm;56822;52.516;4.708;2023-12-04T00:56:06;59.80;42.22;83.86;;
69616;Laerm;56822;52.516;4.708;2023-12-04T00:56:17;48.64;41.81;67.08;;
69616;Laerm;56822;52.516;4.708;2023-12-04T00:56:28;44.95;41.78;59.96;;
69616;Laerm;56822;52.516;4.708;2023-12-04T00:56:39;44.18;41.96;53.12;;
69616;Laerm;56822;52.516;4.708;2023-12-04T00:56:49;44.74;41.75;57.64;;
69616;Laerm;56822;52.516;4.708;2023-12-04T00:57:00;48.55;41.94;68.32;;
69616;Laerm;56822;52.516;4.708;2023-12-04T00:57:10;45.01;42.44;51.29;;
69616;Laerm;56822;52.516;4.708;2023-12-04T00:57:20;49.33;43.13;67.61;;
69616;Laerm;56822;52.516;4.708;2023-12-04T00:57:31;49.64;43.82;61.27;;
69616;Laerm;56822;52.516;4.708;2023-12-04T00:57:41;52.87;42.73;75.19;;
69616;Laerm;56822;52.516;4.708;2023-12-04T00:57:52;48.97;42.06;68.65;;
69616;Laerm;56822;52.516;4.708;2023-12-04T00:58:02;45.78;41.80;65.79;;
69616;Laerm;56822;52.516;4.708;2023-12-04T00:58:12;44.26;42.01;60.15;;
69616;Laerm;56822;52.516;4.708;2023-12-04T00:58:23;49.20;42.26;70.95;;